createdAt,value
2022-11-03T00:01:51.322Z,10.88
2022-11-03T00:06:56.870Z,13.20
2022-11-03T00:12:00.963Z,9.15
2022-11-03T00:17:04.394Z,10.82
2022-11-03T00:22:09.168Z,13.35
2022-11-03T00:27:12.553Z,11.48
2022-11-03T00:32:15.940Z,8.43
2022-11-03T00:37:20.646Z,12.93
2022-11-03T00:42:24.083Z,12.25
2022-11-03T00:47:27.789Z,11.43
2022-11-03T00:52:32.587Z,12.32
2022-11-03T00:57:35.968Z,11.88
2022-11-03T01:02:39.463Z,10.00
2022-11-03T01:07:44.300Z,13.80
2022-11-03T01:12:47.679Z,14.15
2022-11-03T01:17:51.173Z,10.60
2022-11-03T01:22:55.942Z,15.07
2022-11-03T01:27:59.622Z,14.52
2022-11-03T01:33:03.169Z,12.07
2022-11-03T01:38:08.063Z,12.50
2022-11-03T01:43:19.561Z,13.98
2022-11-03T01:48:25.008Z,12.75
2022-11-03T01:53:30.765Z,12.35
2022-11-03T01:58:38.856Z,13.45
2022-11-03T02:03:47.137Z,10.82
2022-11-03T02:08:55.898Z,12.20
2022-11-03T02:13:59.636Z,11.63
2022-11-03T02:19:04.463Z,11.68
2022-11-03T02:24:16.527Z,11.77
2022-11-03T02:29:21.239Z,17.85
2022-11-03T02:34:29.169Z,13.25
2022-11-03T02:39:37.657Z,14.65
2022-11-03T02:44:44.929Z,12.25
2022-11-03T02:49:49.795Z,12.82
2022-11-03T02:54:55.174Z,14.00
2022-11-03T03:00:06.773Z,15.68
2022-11-03T03:05:15.056Z,17.75
2022-11-03T03:10:22.484Z,14.45
2022-11-03T03:15:41.897Z,14.65
2022-11-03T03:20:52.760Z,14.52
2022-11-03T03:26:03.365Z,12.77
2022-11-03T03:31:13.014Z,12.77
2022-11-03T03:36:19.808Z,10.80
2022-11-03T03:41:25.649Z,16.13
2022-11-03T03:46:36.482Z,16.10
2022-11-03T03:51:40.106Z,13.35
2022-11-03T03:56:47.294Z,12.88
2022-11-03T04:01:52.118Z,12.93
2022-11-03T04:07:09.855Z,12.23
2022-11-03T04:12:30.552Z,10.43
2022-11-03T04:17:53.022Z,11.50
2022-11-03T04:22:56.577Z,14.38
2022-11-03T04:28:00.208Z,10.98
2022-11-03T04:33:12.549Z,14.25
2022-11-03T04:38:24.191Z,13.13
2022-11-03T04:43:34.506Z,12.93
2022-11-03T04:48:39.503Z,13.52
2022-11-03T04:53:49.325Z,9.95
2022-11-03T04:58:53.944Z,9.88
2022-11-03T05:03:58.714Z,9.23
2022-11-03T05:09:06.786Z,10.07
2022-11-03T05:14:17.106Z,16.45
2022-11-03T05:19:25.376Z,12.30
2022-11-03T05:24:28.849Z,12.38
2022-11-03T05:29:36.693Z,12.35
2022-11-03T05:34:44.175Z,10.07
2022-11-03T05:39:48.766Z,11.35
2022-11-03T05:44:53.425Z,11.98
2022-11-03T05:50:03.512Z,10.50
2022-11-03T05:55:17.167Z,10.85
2022-11-03T06:00:29.846Z,15.57
2022-11-03T06:05:35.452Z,12.57
2022-11-03T06:10:46.232Z,14.07
2022-11-03T06:15:52.540Z,12.43
2022-11-03T06:20:59.798Z,13.80
2022-11-03T06:26:04.391Z,10.65
2022-11-03T06:31:22.044Z,11.32
2022-11-03T06:36:32.233Z,10.90
2022-11-03T06:41:38.061Z,11.75
2022-11-03T06:46:41.611Z,13.73
2022-11-03T06:51:46.597Z,15.07
2022-11-03T06:56:49.954Z,12.45
2022-11-03T07:01:56.895Z,17.35
2022-11-03T07:07:04.020Z,17.15
2022-11-03T07:12:14.801Z,16.23
2022-11-03T07:17:23.217Z,16.08
2022-11-03T07:22:28.800Z,11.82
2022-11-03T07:27:36.033Z,14.32
2022-11-03T07:32:40.199Z,15.07
2022-11-03T07:37:46.434Z,17.83
2022-11-03T07:42:49.962Z,14.57
2022-11-03T07:47:53.395Z,14.98
2022-11-03T07:52:58.386Z,12.05
2022-11-03T07:58:01.988Z,13.40
2022-11-03T08:03:05.870Z,8.68
2022-11-03T08:08:10.876Z,11.38
2022-11-03T08:13:14.531Z,10.43
2022-11-03T08:18:17.938Z,9.15
2022-11-03T08:23:26.551Z,15.20
2022-11-03T08:28:30.659Z,11.23
2022-11-03T08:33:34.890Z,11.30
2022-11-03T08:38:39.709Z,9.45
2022-11-03T08:43:43.086Z,11.73
2022-11-03T08:48:47.125Z,15.57
2022-11-03T08:53:54.396Z,16.73
2022-11-03T08:58:57.770Z,12.48
2022-11-03T09:04:01.421Z,9.60
2022-11-03T09:14:29.686Z,6.93
2022-11-03T09:19:33.137Z,6.75
2022-11-03T09:24:37.891Z,10.23
2022-11-03T09:30:11.136Z,9.73
2022-11-03T09:40:14.577Z,8.32
2022-11-03T09:45:18.285Z,10.13
2022-11-03T09:50:22.014Z,10.15
2022-11-03T09:55:28.858Z,14.02
2022-11-03T10:00:32.264Z,9.43
2022-11-03T10:05:35.963Z,6.43
2022-11-03T10:10:41.694Z,7.05
2022-11-03T10:15:45.067Z,8.57
2022-11-03T10:20:48.808Z,9.65
2022-11-03T10:25:53.510Z,9.02
2022-11-03T10:31:11.452Z,11.65
2022-11-03T10:36:26.393Z,8.40
2022-11-03T10:41:33.036Z,12.02
2022-11-03T10:46:49.204Z,11.73
2022-11-03T10:51:55.775Z,10.13
2022-11-03T10:57:00.783Z,10.27
2022-11-03T11:02:05.079Z,15.57
2022-11-03T11:07:20.288Z,7.57
2022-11-03T11:12:26.052Z,10.32
2022-11-03T11:17:45.664Z,12.75
2022-11-03T11:22:49.902Z,10.60
2022-11-03T11:27:59.019Z,12.40
2022-11-03T11:33:14.428Z,6.43
2022-11-03T11:39:06.676Z,8.07
2022-11-03T11:44:46.755Z,6.13
2022-11-03T11:50:16.484Z,10.80
2022-11-03T11:55:26.370Z,7.85
2022-11-03T12:00:32.176Z,8.93
2022-11-03T12:05:37.293Z,8.32
2022-11-03T12:10:53.488Z,7.13
2022-11-03T12:15:57.644Z,8.70
2022-11-03T12:21:03.120Z,9.13
2022-11-03T12:26:07.232Z,8.30
2022-11-03T12:31:10.918Z,10.30
2022-11-03T12:36:15.915Z,7.60
2022-11-03T12:41:25.370Z,5.68
2022-11-03T12:46:29.575Z,7.95
2022-11-03T12:51:34.295Z,8.77
2022-11-03T12:56:37.686Z,6.07
2022-11-03T13:01:41.761Z,7.72
2022-11-03T13:06:46.690Z,9.45
2022-11-03T13:12:07.669Z,8.73
2022-11-03T13:17:11.041Z,10.40
2022-11-03T13:22:15.883Z,9.15
2022-11-03T13:27:19.403Z,8.70
2022-11-03T13:32:22.813Z,12.43
2022-11-03T13:37:27.821Z,9.68
2022-11-03T13:42:31.286Z,10.18
2022-11-03T13:48:15.514Z,13.07
2022-11-03T14:09:11.430Z,13.80
2022-11-03T14:14:14.868Z,11.55
2022-11-03T14:19:18.244Z,13.55
2022-11-03T14:24:23.453Z,8.73
2022-11-03T14:29:27.128Z,10.80
2022-11-03T14:34:30.541Z,5.95
2022-11-03T14:39:36.525Z,8.13
2022-11-03T14:44:40.931Z,8.05
2022-11-03T14:49:44.470Z,13.57
2022-11-03T14:54:49.414Z,34.75
2022-11-03T14:59:53.676Z,32.03
2022-11-03T15:04:57.631Z,24.63
2022-11-03T15:10:02.378Z,15.13
2022-11-03T15:15:06.724Z,15.23
2022-11-03T15:20:11.692Z,15.55
2022-11-03T15:25:19.817Z,15.82
2022-11-03T15:30:27.906Z,18.40
2022-11-03T15:35:31.396Z,15.90
2022-11-03T15:40:36.151Z,18.08
2022-11-03T15:45:40.596Z,19.50
2022-11-03T15:50:44.227Z,12.98
2022-11-03T15:55:49.014Z,13.10
2022-11-03T16:00:52.485Z,14.15
2022-11-03T16:05:56.237Z,16.63
2022-11-03T16:11:00.942Z,17.58
2022-11-03T16:16:04.629Z,11.32
2022-11-03T16:21:08.527Z,15.02
2022-11-03T16:26:14.615Z,18.45
2022-11-03T16:31:18.352Z,16.55
2022-11-03T16:36:21.796Z,10.98
2022-11-03T16:41:26.556Z,16.75
2022-11-03T16:46:30.006Z,23.95
2022-11-03T16:51:33.695Z,13.38
2022-11-03T16:56:38.572Z,13.27
2022-11-03T17:01:42.121Z,11.57
2022-11-03T17:06:45.886Z,12.05
2022-11-03T17:11:50.645Z,11.38
2022-11-03T17:16:53.999Z,13.85
2022-11-03T17:21:57.432Z,15.40
2022-11-03T17:27:05.017Z,12.65
2022-11-03T17:32:12.177Z,16.73
2022-11-03T17:37:15.630Z,20.17
2022-11-03T17:42:24.699Z,14.85
2022-11-03T17:47:28.115Z,16.00
2022-11-03T17:52:32.679Z,17.42
2022-11-03T17:57:37.857Z,22.65
2022-11-03T18:02:41.836Z,20.48
2022-11-03T18:07:45.414Z,20.35
2022-11-03T18:13:09.643Z,24.27
2022-11-03T18:18:16.479Z,29.02
2022-11-03T18:23:21.676Z,31.65
2022-11-03T18:28:26.414Z,23.50
2022-11-03T18:33:32.721Z,29.42
2022-11-03T18:38:37.567Z,27.98
2022-11-03T18:43:42.681Z,26.05
2022-11-03T18:48:46.141Z,31.63
2022-11-03T18:53:49.840Z,28.80
2022-11-03T18:58:57.882Z,27.23
2022-11-03T19:04:01.258Z,20.92
2022-11-03T19:09:05.526Z,25.20
2022-11-03T19:14:14.612Z,22.58
2022-11-03T19:19:18.083Z,23.85
2022-11-03T19:24:21.774Z,23.08
2022-11-03T19:29:30.751Z,22.90
2022-11-03T19:34:36.153Z,26.80
2022-11-03T19:39:41.762Z,25.52
2022-11-03T19:44:46.920Z,21.55
2022-11-03T19:49:50.678Z,26.00
2022-11-03T19:54:55.387Z,25.35
2022-11-03T20:00:00.129Z,28.17
2022-11-03T20:05:03.805Z,27.15
2022-11-03T20:10:14.464Z,30.13
2022-11-03T20:15:22.893Z,29.55
2022-11-03T20:20:35.077Z,33.35
2022-11-03T20:25:39.455Z,34.60
2022-11-03T20:30:44.514Z,26.58
2022-11-03T20:35:49.461Z,31.83
2022-11-03T20:40:58.351Z,31.63
2022-11-03T20:46:05.082Z,29.20
2022-11-03T20:51:11.263Z,31.98
2022-11-03T20:56:19.565Z,26.58
2022-11-03T21:01:27.573Z,30.58
2022-11-03T21:06:33.122Z,30.05
2022-11-03T21:11:40.631Z,33.65
2022-11-03T21:17:03.112Z,33.95
2022-11-03T21:22:30.933Z,27.98
2022-11-03T21:27:40.835Z,28.30
2022-11-03T21:32:47.916Z,26.65
2022-11-03T21:37:51.366Z,26.02
2022-11-03T21:43:12.141Z,29.65
2022-11-03T21:48:34.974Z,24.60
2022-11-03T21:53:38.631Z,28.27
2022-11-03T21:58:42.035Z,27.05
2022-11-03T22:03:46.813Z,25.55
2022-11-03T22:08:52.448Z,29.77
2022-11-03T22:13:58.669Z,26.23
2022-11-03T22:19:21.112Z,31.05
2022-11-03T22:24:42.029Z,25.00
2022-11-03T22:30:11.662Z,28.02
2022-11-03T22:35:33.908Z,23.33
2022-11-03T22:40:56.307Z,25.40
2022-11-03T22:46:00.012Z,27.42
2022-11-03T22:51:06.937Z,21.52
2022-11-03T22:56:10.595Z,27.77
2022-11-03T23:01:15.727Z,20.90
2022-11-03T23:06:22.681Z,25.25
2022-11-03T23:11:29.317Z,25.13
2022-11-03T23:16:34.481Z,22.88
2022-11-03T23:21:39.712Z,23.23
2022-11-03T23:26:44.416Z,23.08
2022-11-03T23:31:48.444Z,23.20
2022-11-03T23:36:53.665Z,26.42
2022-11-03T23:41:57.125Z,21.80
2022-11-03T23:47:17.965Z,21.80
2022-11-03T23:52:22.715Z,23.20
2022-11-03T23:57:44.032Z,25.25
